Latest Weather Observations for The Monument

IDQ60801

Issued at 9:32 pm EST Friday 3 July 2015 (issued every 30 minutes, with the page automatically refreshed every 10 minutes)

About weather observations | Map of weather stations | Latest weather observations for QLD | Other Formats
Station Details ID: 037034 Name: THE MONUMENT AIRPORT Lat: -21.81 Lon: 139.93 Height: 288.4 m
Data from the previous 72 hours. | See also: Recent months at The Monument
Date/Time
EST
Temp
°C
App
Temp
°C
Dew
Point
Rel
Hum
%
Delta-T
°C
Wind Press
QNH
hPa
Press
MSL
hPa
Rain
since 9 am
mm
Dir
 
Spd
km/h
Gust
km/h
Spd
kts
Gust
kts
03/09:30pm 13.4 9.2 -1.0 37 5.9 SSE 11 13 6 7 1021.3 1020.9 0.0
03/09:00pm 13.9 10.1 -0.9 36 6.1 SSE 9 11 5 6 1021.1 1020.7 0.0
03/08:30pm 14.5 10.3 -1.2 34 6.5 SSE 11 13 6 7 1020.9 1020.5 0.0
03/08:00pm 15.6 11.4 -0.6 33 6.9 SSE 11 15 6 8 1020.6 1020.2 0.0
03/07:30pm 16.5 11.9 -0.7 31 7.4 SSE 13 15 7 8 1020.4 1020.0 0.0
03/07:00pm 17.6 12.7 -0.6 29 7.9 SSE 15 17 8 9 1019.9 1019.6 0.0
03/06:30pm 18.5 14.0 -0.3 28 8.3 SSE 13 19 7 10 1019.7 1019.4 0.0
03/06:00pm 19.8 14.6 0.3 27 8.8 SSE 17 24 9 13 1019.4 1019.0 0.0
03/05:30pm 20.9 15.2 0.7 26 9.3 SE 20 26 11 14 1019.3 1018.9 0.0
03/05:00pm 21.3 15.3 1.0 26 9.4 SE 22 30 12 16 1019.3 1018.9 0.0
03/04:30pm 21.7 16.2 1.9 27 9.3 SE 20 30 11 16 1019.2 1018.8 0.0
03/04:00pm 21.9 16.7 2.6 28 9.2 SE 19 26 10 14 1019.2 1018.8 0.0
03/03:30pm 21.7 16.5 2.4 28 9.2 SSE 19 30 10 16 1019.4 1019.0 0.0
03/03:00pm 21.6 17.3 3.3 30 8.8 SSE 15 22 8 12 1019.5 1019.1 0.0
03/02:30pm 20.8 16.2 3.5 32 8.4 SE 17 30 9 16 1019.7 1019.4 0.0
03/02:00pm 20.6 16.2 4.6 35 7.9 SE 17 30 9 16 1020.1 1019.8 0.0
03/01:30pm 20.2 16.1 4.3 35 7.8 SE 15 22 8 12 1020.9 1020.5 0.0
03/01:00pm 19.7 15.3 4.6 37 7.4 ESE 17 26 9 14 1021.6 1021.2 0.0
03/12:30pm 19.1 15.2 5.2 40 6.9 ESE 15 24 8 13 1022.2 1021.8 0.0
03/12:00pm 19.0 14.8 5.8 42 6.6 ESE 17 26 9 14 1022.8 1022.5 0.0
03/11:30am 17.9 13.1 5.5 44 6.1 ESE 20 33 11 18 1023.2 1022.9 0.0
03/11:00am 17.4 12.6 5.7 46 5.7 ESE 20 28 11 15 1023.5 1023.2 0.0
03/10:30am 16.1 10.8 5.1 48 5.3 ESE 22 32 12 17 1023.7 1023.4 0.0
03/10:00am 15.6 10.3 5.2 50 5.0 ESE 22 33 12 18 1024.0 1023.6 0.0
03/09:30am 13.8 8.3 4.1 52 4.5 ESE 22 33 12 18 1024.0 1023.6 0.0
03/09:00am 12.5 7.8 2.9 52 4.3 SE 17 26 9 14 1023.7 1023.4 0.0
03/08:30am 10.4 7.2 0.7 51 4.0 S 7 9 4 5 1023.6 1023.3 0.0
03/08:00am 8.7 5.6 0.2 55 3.4 S 6 9 3 5 1023.4 1023.1 0.0
03/07:30am 7.7 3.6 -0.3 57 3.2 S 11 11 6 6 1023.0 1022.7 0.0
03/07:00am 7.7 4.0 -0.3 57 3.2 S 9 11 5 6 1022.6 1022.3 0.0
03/06:30am 8.1 4.0 -0.1 56 3.3 S 11 11 6 6 1022.5 1022.1 0.0
03/06:00am 8.6 4.5 0.1 55 3.4 S 11 13 6 7 1022.3 1021.9 0.0
03/05:30am 8.9 4.8 0.1 54 3.6 S 11 13 6 7 1022.3 1021.9 0.0
03/05:00am 9.4 5.4 0.3 53 3.7 S 11 13 6 7 1022.3 1021.9 0.0
03/04:30am 9.9 6.3 0.8 53 3.8 S 9 13 5 7 1022.3 1021.9 0.0
03/04:00am 10.5 6.6 1.1 52 3.9 S 11 13 6 7 1022.3 1021.9 0.0
03/03:30am 11.0 7.2 1.5 52 4.1 S 11 13 6 7 1022.4 1022.0 0.0
03/03:00am 11.7 8.3 1.6 50 4.3 S 9 13 5 7 1022.6 1022.3 0.0
03/02:30am 12.1 8.4 2.3 51 4.3 SSE 11 13 6 7 1022.7 1022.4 0.0
03/02:00am 12.7 8.6 2.3 49 4.6 SSE 13 17 7 9 1022.8 1022.5 0.0
03/01:30am 13.5 9.1 2.7 48 4.8 SSE 15 20 8 11 1022.9 1022.6 0.0
03/01:00am 13.8 9.1 3.0 48 4.9 SSE 17 22 9 12 1023.1 1022.8 0.0
03/12:30am 14.2 9.5 3.4 48 4.9 SSE 17 22 9 12 1023.1 1022.8 0.0
03/12:00am 14.6 9.6 3.7 48 5.0 SSE 19 28 10 15 1023.3 1023.0 0.0
 
Date/Time
EST
Temp
°C
App
Temp
°C
Dew
Point
Rel
Hum
%
Delta-T
°C
Wind Press
QNH
hPa
Press
MSL
hPa
Rain
since 9 am
mm
Dir
 
Spd
km/h
Gust
km/h
Spd
kts
Gust
kts
02/11:30pm 15.3 10.3 4.4 48 5.2 SSE 20 30 11 16 1023.5 1023.2 0.0
02/11:00pm 14.8 11.0 3.9 48 5.1 S 13 17 7 9 1023.7 1023.4 0.0
02/10:30pm 15.3 11.5 4.1 47 5.3 SSE 13 17 7 9 1023.5 1023.2 0.0
02/10:00pm 15.6 11.8 4.0 46 5.4 S 13 17 7 9 1023.7 1023.4 0.0
02/09:30pm 15.7 12.3 3.8 45 5.6 S 11 15 6 8 1023.6 1023.3 0.0
02/09:00pm 16.3 12.5 4.0 44 5.8 S 13 17 7 9 1023.5 1023.2 0.0
02/08:30pm 16.9 13.6 4.3 43 6.0 S 11 15 6 8 1023.3 1023.0 0.0
02/08:00pm 17.5 14.1 4.1 41 6.4 S 11 17 6 9 1023.3 1023.0 0.0
02/07:30pm 18.1 14.6 3.6 38 6.9 S 11 15 6 8 1023.1 1022.8 0.0
02/07:00pm 18.9 14.6 3.5 36 7.3 S 15 20 8 11 1022.7 1022.4 0.0
02/06:30pm 19.6 14.4 3.7 35 7.7 S 20 26 11 14 1022.4 1022.0 0.0
02/06:00pm 20.5 15.0 4.1 34 8.0 S 22 32 12 17 1022.2 1021.8 0.0
02/05:30pm 21.3 15.5 4.4 33 8.3 S 24 35 13 19 1022.1 1021.7 0.0
02/05:00pm 21.9 16.5 4.5 32 8.6 S 22 30 12 16 1022.0 1021.6 0.0
02/04:30pm 22.5 17.2 5.0 32 8.8 S 22 28 12 15 1021.8 1021.4 0.0
02/04:00pm 22.8 18.1 6.1 34 8.6 SSW 20 30 11 16 1021.7 1021.3 0.0
02/03:30pm 22.9 18.0 5.3 32 8.9 S 20 30 11 16 1021.9 1021.5 0.0
02/03:00pm 22.9 18.0 5.3 32 8.9 SSE 20 28 11 15 1022.1 1021.7 0.0
02/02:30pm 22.7 18.5 5.6 33 8.7 SSW 17 30 9 16 1022.4 1022.0 0.0
02/02:00pm 23.3 19.2 6.1 33 8.8 SSW 17 28 9 15 1022.8 1022.5 0.0
02/01:30pm 21.7 17.2 6.0 36 8.0 S 19 32 10 17 1023.3 1023.0 0.0
02/01:00pm 21.8 17.4 6.5 37 7.9 SSE 19 30 10 16 1024.0 1023.6 0.0
02/12:30pm 21.1 16.7 6.6 39 7.5 SE 19 30 10 16 1024.6 1024.2 0.0
02/12:00pm 21.2 16.9 7.1 40 7.3 SSE 19 26 10 14 1025.2 1024.8 0.0
02/11:30am 20.3 17.0 8.0 45 6.5 SE 15 22 8 12 1025.6 1025.3 0.0
02/11:00am 19.5 16.2 8.2 48 5.9 SE 15 17 8 9 1026.0 1025.7 0.0
02/10:30am 18.2 14.9 7.9 51 5.3 SSE 15 22 8 12 1026.3 1026.0 0.0
02/10:00am 16.7 12.8 7.1 53 4.8 SSE 17 22 9 12 1026.5 1026.2 0.0
02/09:30am 15.6 11.3 6.9 56 4.3 S 19 24 10 13 1026.4 1026.1 0.0
02/09:00am 15.0 11.4 6.6 57 4.1 S 15 22 8 12 1026.0 1025.7 0.0
02/08:30am 13.6 9.1 6.2 61 3.6 S 19 24 10 13 1025.8 1025.5 0.0
02/08:00am 12.4 9.0 5.8 64 3.1 S 13 17 7 9 1025.6 1025.3 0.0
02/07:30am 11.5 8.8 5.6 67 2.8 S 9 11 5 6 1025.1 1024.7 0.0
02/07:00am 11.6 9.3 5.5 66 2.9 S 7 11 4 6 1025.0 1024.6 0.0
02/06:30am 12.0 8.9 5.6 65 3.0 S 11 17 6 9 1024.9 1024.5 0.0
02/06:00am 12.3 9.2 5.7 64 3.1 S 11 15 6 8 1024.8 1024.4 0.0
02/05:30am 12.5 9.8 5.7 63 3.2 S 9 13 5 7 1024.7 1024.3 0.0
02/05:00am 12.9 9.9 6.0 63 3.3 S 11 13 6 7 1024.7 1024.3 0.0
02/04:30am 13.0 10.4 5.9 62 3.4 SSE 9 11 5 6 1024.5 1024.1 0.0
02/04:00am 14.1 10.8 6.2 59 3.8 SSE 13 17 7 9 1024.4 1024.0 0.0
02/03:30am 14.7 10.6 6.3 57 4.1 SSE 17 22 9 12 1024.4 1024.0 0.0
02/03:00am 15.2 10.8 6.5 56 4.3 SSE 19 26 10 14 1024.5 1024.1 0.0
02/02:30am 15.5 10.9 6.5 55 4.4 SSE 20 30 11 16 1024.6 1024.2 0.0
02/02:00am 15.9 11.4 6.3 53 4.7 SSE 19 26 10 14 1024.7 1024.3 0.0
02/01:30am 16.3 11.6 6.2 51 5.0 S 20 30 11 16 1024.7 1024.3 0.0
02/01:00am 16.8 12.1 6.0 49 5.3 SSE 20 26 11 14 1024.6 1024.2 0.0
02/12:30am 17.2 12.7 6.1 48 5.5 SSE 19 24 10 13 1024.6 1024.2 0.0
02/12:00am 17.7 13.1 5.6 45 5.9 SSE 19 26 10 14 1024.7 1024.3 0.0
 
Date/Time
EST
Temp
°C
App
Temp
°C
Dew
Point
Rel
Hum
%
Delta-T
°C
Wind Press
QNH
hPa
Press
MSL
hPa
Rain
since 9 am
mm
Dir
 
Spd
km/h
Gust
km/h
Spd
kts
Gust
kts
01/11:30pm 18.5 13.8 6.0 44 6.2 SSE 20 30 11 16 1024.7 1024.3 0.0
01/11:00pm 18.8 14.1 6.0 43 6.4 S 20 28 11 15 1024.8 1024.4 0.0
01/10:30pm 19.3 14.6 6.1 42 6.6 S 20 30 11 16 1024.7 1024.3 0.0
01/10:00pm 19.9 15.3 6.6 42 6.8 S 20 28 11 15 1024.5 1024.1 0.0
01/09:30pm 20.3 16.0 7.0 42 6.9 S 19 26 10 14 1024.2 1023.8 0.0
01/09:00pm 20.8 16.5 7.1 41 7.1 S 19 24 10 13 1023.7 1023.4 0.0
01/08:30pm 21.4 17.2 7.3 40 7.4 SSE 19 24 10 13 1023.5 1023.2 0.0
01/08:00pm 21.6 17.9 7.8 41 7.2 S 17 20 9 11 1023.3 1023.0 0.0
01/07:30pm 22.1 18.4 7.9 40 7.5 S 17 20 9 11 1023.0 1022.7 0.0
01/07:00pm 22.6 19.3 8.0 39 7.7 S 15 19 8 10 1022.8 1022.5 0.0
01/06:30pm 23.2 20.0 8.5 39 7.9 SSE 15 20 8 11 1022.4 1022.0 0.0
01/06:00pm 23.9 20.2 7.9 36 8.5 SSE 17 20 9 11 1022.3 1021.9 0.0
01/05:30pm 25.0 21.4 8.5 35 9.0 S 17 22 9 12 1022.2 1021.8 0.0
01/05:00pm 24.8 21.2 8.3 35 8.9 S 17 26 9 14 1022.1 1021.7 0.0
01/04:30pm 25.1 22.0 9.0 36 8.8 SE 15 22 8 12 1021.9 1021.5 0.0
01/04:00pm 25.6 22.4 9.8 37 8.8 S 17 20 9 11 1021.8 1021.4 0.0
01/03:30pm 26.3 22.9 10.5 37 9.0 SE 19 28 10 15 1021.9 1021.5 0.0
01/03:00pm 25.2 22.0 9.9 38 8.5 SSE 17 30 9 16 1022.2 1021.8 0.0
01/02:30pm 24.9 21.9 10.7 40 8.0 SSE 17 28 9 15 1022.5 1022.1 0.0
01/02:00pm 23.9 20.8 11.6 46 7.0 SSE 19 28 10 15 1023.0 1022.7 0.0
01/01:30pm 25.0 22.7 12.9 47 7.1 SE 17 26 9 14 1023.5 1023.2 0.0
01/01:00pm 24.4 21.9 12.4 47 6.9 ESE 17 24 9 13 1024.1 1023.7 0.0
01/12:30pm 23.8 21.4 12.8 50 6.4 E 17 26 9 14 1024.7 1024.3 0.0
01/12:00pm 23.6 21.0 13.2 52 6.1 SE 19 26 10 14 1025.2 1024.8 0.0
01/11:30am 22.7 20.0 13.5 56 5.4 ESE 20 30 11 16 1025.8 1025.5 0.0
01/11:00am 22.0 19.3 13.4 58 5.0 ESE 20 30 11 16 1026.0 1025.7 0.0
01/10:30am 21.0 18.0 12.7 59 4.8 ESE 20 28 11 15 1026.2 1025.9 0.0
01/10:00am 20.2 17.7 12.2 60 4.5 SE 17 26 9 14 1026.2 1025.9 0.0
01/09:30am 18.5 16.0 11.1 62 4.1 SE 15 20 8 11 1026.0 1025.6 0.0
01/09:00am 17.3 14.6 10.4 64 3.7 SSE 15 20 8 11 1025.7 1025.3 0.0
01/08:30am 15.8 14.1 9.7 67 3.2 SSE 9 13 5 7 1025.3 1024.9 0.0
01/08:00am 14.5 13.2 9.3 71 2.7 SSE 6 9 3 5 1025.1 1024.7 0.0
01/07:30am 13.5 11.6 9.0 74 2.3 SSE 9 11 5 6 1024.8 1024.4 0.0
01/07:00am 13.9 11.6 9.1 73 2.5 SSE 11 13 6 7 1024.5 1024.1 0.0
01/06:30am 14.3 12.1 9.3 72 2.6 S 11 13 6 7 1024.3 1023.8 0.0
01/06:00am 14.7 12.5 9.5 71 2.7 S 11 15 6 8 1024.0 1023.5 0.0
01/05:30am 15.2 12.7 9.6 69 2.9 SSE 13 17 7 9 1023.6 1023.2 0.0
01/05:00am 15.4 12.8 9.5 68 3.1 S 13 15 7 8 1023.5 1023.1 0.0
01/04:30am 15.8 13.3 9.7 67 3.2 S 13 17 7 9 1023.4 1023.0 0.0
01/04:00am 16.1 13.5 9.5 65 3.5 S 13 15 7 8 1023.6 1023.2 0.0
01/03:30am 16.6 14.9 9.8 64 3.6 SSE 9 13 5 7 1023.8 1023.4 0.0
01/03:00am 17.1 15.0 9.8 62 3.9 S 11 13 6 7 1023.8 1023.4 0.0
01/02:30am 17.9 15.9 10.0 60 4.2 S 11 13 6 7 1024.1 1023.6 0.0
01/02:00am 18.4 16.4 10.3 59 4.4 S 11 15 6 8 1024.2 1023.7 0.0
01/01:30am 18.8 17.1 11.1 61 4.2 SSE 11 15 6 8 1024.1 1023.6 0.0
01/01:00am 19.2 17.4 12.0 63 4.0 SE 13 20 7 11 1024.1 1023.6 0.0
01/12:30am 19.8 18.8 13.3 66 3.8 SE 11 15 6 8 1024.1 1023.6 0.0
01/12:00am 20.8 18.7 13.7 64 4.1 SE 17 22 9 12 1024.2 1023.7 0.0
 
Date/Time
EST
Temp
°C
App
Temp
°C
Dew
Point
Rel
Hum
%
Delta-T
°C
Wind Press
QNH
hPa
Press
MSL
hPa
Rain
since 9 am
mm
Dir
 
Spd
km/h
Gust
km/h
Spd
kts
Gust
kts
30/11:30pm 21.3 19.1 13.2 60 4.7 SE 17 22 9 12 1024.2 1023.7 0.0
30/11:00pm 21.4 19.5 13.1 59 4.8 SSE 15 20 8 11 1024.2 1023.7 0.0
30/10:30pm 21.8 19.6 13.2 58 5.0 SE 17 24 9 13 1024.2 1023.7 0.0
30/10:00pm 21.8 19.3 12.4 55 5.4 SSE 17 20 9 11 1024.0 1023.5 0.0

Other Formats:

Comma delimited format used in spreadsheet applications
http://www.bom.gov.au/fwo/IDQ60801/IDQ60801.94336.axf

JavaScript Object Notation format (JSON) in row-major order
http://www.bom.gov.au/fwo/IDQ60801/IDQ60801.94336.json